Freshwater, Canada
Current Conditions -  °F | °C
As of 12:00 AM on Friday 19 Dec 2014 (Local Time) from CYYT Reporting Station
Light Rain Light Rain  
Wind Chill: 37°   Ceiling: 300
Heat Index: 45°   Visibility: 3mi
Dew Point: 45°   Wind: 17mph
Humidity: 100%   Direction: 170°S
Pressure: 29.56"   Gusts: 24mph
Location:  47.75°N, 53.2°W
Report Text: CYYT 190300Z 17015G21KT 3SM -RA BR OVC003 07/07 A2956 RMK SF8 SLP016
Loading
Personal Weather Stations






























Interactive Weather Map New forecast layout! Learn more

10-Day Weather Forecast

Advertisements
Track Severe Weather on mobile